createdAt,value
2019-04-05T00:02:21.044Z,14.67
2019-04-05T00:04:50.867Z,13.13
2019-04-05T00:07:20.632Z,13.47
2019-04-05T00:09:50.488Z,12.30
2019-04-05T00:12:20.168Z,13.30
2019-04-05T00:14:49.957Z,13.90
2019-04-05T00:17:19.679Z,14.10
2019-04-05T00:19:49.429Z,12.27
2019-04-05T00:22:19.231Z,13.27
2019-04-05T00:24:49.010Z,13.00
2019-04-05T00:27:19.295Z,13.77
2019-04-05T00:29:49.933Z,11.97
2019-04-05T00:32:19.701Z,12.13
2019-04-05T00:34:49.383Z,11.50
2019-04-05T00:37:19.059Z,11.77
2019-04-05T00:39:48.834Z,13.00
2019-04-05T00:42:18.515Z,13.17
2019-04-05T00:44:48.159Z,12.50
2019-04-05T00:47:17.819Z,13.10
2019-04-05T00:49:47.568Z,13.60
2019-04-05T00:52:17.208Z,10.97
2019-04-05T00:54:46.903Z,11.77
2019-04-05T00:57:16.686Z,11.17
2019-04-05T00:59:46.680Z,10.47
2019-04-05T01:02:16.561Z,10.37
2019-04-05T01:04:46.311Z,11.37
2019-04-05T01:07:16.165Z,10.93
2019-04-05T01:09:46.331Z,9.43
2019-04-05T01:12:17.108Z,9.53
2019-04-05T01:14:47.151Z,9.47
2019-04-05T01:17:24.829Z,9.73
2019-04-05T01:19:50.307Z,9.37
2019-04-05T01:22:22.981Z,9.85
2019-04-05T01:24:52.980Z,10.23
2019-04-05T01:27:24.823Z,10.15
2019-04-05T01:29:54.814Z,10.50
2019-04-05T01:32:26.162Z,10.27
2019-04-05T01:34:55.949Z,10.10
2019-04-05T01:37:26.329Z,10.03
2019-04-05T01:39:56.082Z,9.43
2019-04-05T01:42:35.900Z,10.37
2019-04-05T01:45:06.667Z,10.70
2019-04-05T01:47:37.736Z,10.87
2019-04-05T01:50:08.741Z,10.28
2019-04-05T01:52:38.962Z,10.73
2019-04-05T01:55:09.397Z,10.90
2019-04-05T01:57:39.199Z,11.13
2019-04-05T02:00:11.504Z,11.97
2019-04-05T02:02:41.287Z,11.28
2019-04-05T02:05:12.226Z,11.20
2019-04-05T02:07:42.142Z,11.33
2019-04-05T02:10:15.495Z,11.20
2019-04-05T02:12:46.349Z,10.80
2019-04-05T02:15:26.899Z,11.13
2019-04-05T02:17:58.027Z,11.77
2019-04-05T02:20:27.874Z,11.00
2019-04-05T02:22:57.739Z,12.13
2019-04-05T02:25:27.620Z,11.57
2019-04-05T02:27:59.412Z,11.63
2019-04-05T02:30:29.230Z,12.30
2019-04-05T02:32:58.952Z,11.50
2019-04-05T02:35:29.300Z,12.70
2019-04-05T02:37:59.099Z,11.73
2019-04-05T02:40:29.193Z,12.33
2019-04-05T02:42:59.316Z,12.47
2019-04-05T02:45:31.434Z,12.80
2019-04-05T02:48:04.216Z,12.98
2019-04-05T02:50:35.489Z,11.30
2019-04-05T02:53:07.171Z,11.70
2019-04-05T02:55:37.862Z,11.87
2019-04-05T02:58:08.284Z,12.47
2019-04-05T03:00:38.161Z,12.43
2019-04-05T03:03:07.886Z,11.00
2019-04-05T03:05:37.595Z,12.15
2019-04-05T03:08:07.427Z,12.70
2019-04-05T03:11:12.768Z,13.20
2019-04-05T03:14:03.231Z,11.70
2019-04-05T03:16:41.737Z,12.17
2019-04-05T03:19:14.933Z,12.13
2019-04-05T03:21:49.011Z,12.83
2019-04-05T03:24:21.660Z,12.60
2019-04-05T03:26:56.582Z,12.93
2019-04-05T03:29:27.639Z,13.50
2019-04-05T03:32:09.189Z,13.20
2019-04-05T03:34:40.396Z,12.63
2019-04-05T03:37:10.673Z,14.03
2019-04-05T03:39:40.823Z,13.23
2019-04-05T03:42:10.843Z,13.97
2019-04-05T03:44:41.218Z,12.90
2019-04-05T03:47:11.161Z,13.67
2019-04-05T03:49:41.119Z,14.80
2019-04-05T03:52:10.941Z,14.70
2019-04-05T03:54:40.814Z,14.23
2019-04-05T03:57:10.745Z,14.70
2019-04-05T03:59:40.949Z,14.43
2019-04-05T04:02:10.772Z,14.47
2019-04-05T04:04:40.610Z,15.20
2019-04-05T04:07:10.307Z,15.97
2019-04-05T04:09:40.084Z,15.30
2019-04-05T04:12:10.974Z,14.17
2019-04-05T04:14:41.033Z,14.63
2019-04-05T04:17:13.372Z,16.00
2019-04-05T04:19:42.803Z,14.47
2019-04-05T04:22:30.345Z,14.93
2019-04-05T04:25:01.503Z,15.18
2019-04-05T04:27:31.801Z,15.67
2019-04-05T04:30:01.819Z,15.67
2019-04-05T04:32:31.775Z,16.00
2019-04-05T04:35:01.554Z,15.97
2019-04-05T04:37:31.331Z,15.23
2019-04-05T04:40:01.059Z,16.00
2019-04-05T04:42:31.963Z,15.53
2019-04-05T04:45:11.803Z,15.43
2019-04-05T04:47:33.209Z,15.07
2019-04-05T04:50:03.359Z,15.63
2019-04-05T04:52:33.322Z,16.17
2019-04-05T04:55:03.283Z,16.77
2019-04-05T04:57:33.245Z,17.03
2019-04-05T05:00:03.001Z,15.90
2019-04-05T05:02:32.783Z,17.07
2019-04-05T05:05:02.910Z,17.77
2019-04-05T05:07:32.637Z,15.88
2019-04-05T05:10:03.364Z,17.70
2019-04-05T05:12:34.466Z,16.57
2019-04-05T05:15:04.845Z,17.43
2019-04-05T05:17:38.794Z,17.53
2019-04-05T05:20:07.011Z,17.33
2019-04-05T05:22:37.529Z,17.30
2019-04-05T05:25:07.665Z,16.90
2019-04-05T05:27:37.659Z,17.63
2019-04-05T05:30:10.114Z,17.97
2019-04-05T05:32:40.282Z,17.57
2019-04-05T05:35:10.096Z,18.03
2019-04-05T05:37:39.832Z,16.03
2019-04-05T05:40:10.081Z,17.73
2019-04-05T05:42:39.849Z,15.80
2019-04-05T05:45:10.508Z,16.40
2019-04-05T05:47:51.183Z,17.33
2019-04-05T05:50:11.880Z,17.40
2019-04-05T05:52:41.616Z,17.83
2019-04-05T05:55:11.462Z,18.17
2019-04-05T05:57:41.253Z,17.20
2019-04-05T06:00:13.057Z,17.15
2019-04-05T06:02:43.778Z,18.03
2019-04-05T06:05:13.794Z,16.87
2019-04-05T06:07:44.601Z,18.00
2019-04-05T06:10:14.444Z,17.12
2019-04-05T06:12:44.274Z,17.70
2019-04-05T06:15:14.078Z,17.63
2019-04-05T06:17:43.842Z,18.00
2019-04-05T06:20:14.333Z,19.07
2019-04-05T06:22:43.966Z,18.10
2019-04-05T06:25:14.745Z,18.83
2019-04-05T06:27:44.422Z,19.43
2019-04-05T06:30:14.257Z,19.63
2019-04-05T06:32:44.021Z,18.53
2019-04-05T06:35:15.396Z,19.77
2019-04-05T06:37:45.148Z,18.93
2019-04-05T06:40:16.231Z,20.07
2019-04-05T06:42:45.998Z,19.75
2019-04-05T06:45:15.682Z,19.33
2019-04-05T06:47:45.347Z,19.52
2019-04-05T06:50:15.098Z,18.97
2019-04-05T06:52:45.230Z,18.43
2019-04-05T06:55:15.020Z,18.37
2019-04-05T06:57:44.884Z,18.90
2019-04-05T07:00:14.660Z,19.13
2019-04-05T07:02:44.465Z,17.80
2019-04-05T07:05:14.380Z,17.93
2019-04-05T07:07:45.157Z,19.20
2019-04-05T07:10:14.930Z,17.17
2019-04-05T07:12:46.525Z,17.57
2019-04-05T07:15:16.315Z,18.07
2019-04-05T07:17:46.108Z,16.60
2019-04-05T07:20:15.852Z,17.47
2019-04-05T07:22:45.961Z,17.00
2019-04-05T07:25:15.748Z,16.57
2019-04-05T07:27:45.547Z,16.67
2019-04-05T07:30:16.223Z,15.80
2019-04-05T07:32:46.024Z,15.80
2019-04-05T07:35:15.839Z,15.87
2019-04-05T07:37:45.616Z,15.87
2019-04-05T07:40:15.919Z,16.55
2019-04-05T07:42:47.013Z,15.77
2019-04-05T07:45:16.843Z,14.40
2019-04-05T07:47:46.460Z,15.25
2019-04-05T07:50:16.470Z,15.37
2019-04-05T07:52:46.698Z,15.27
2019-04-05T07:55:16.499Z,15.23
2019-04-05T07:57:46.217Z,14.87
2019-04-05T08:00:51.057Z,15.73
2019-04-05T08:03:21.255Z,14.27
2019-04-05T08:05:51.678Z,13.93
2019-04-05T08:08:28.428Z,14.23
2019-04-05T08:10:58.715Z,14.50
2019-04-05T08:13:29.007Z,13.87
2019-04-05T08:16:01.393Z,13.80
2019-04-05T08:18:31.130Z,14.50
2019-04-05T08:21:00.899Z,14.47
2019-04-05T08:23:31.018Z,14.03
2019-04-05T08:26:00.739Z,12.88
2019-04-05T08:28:31.438Z,12.97
2019-04-05T08:31:01.254Z,13.43
2019-04-05T08:33:31.085Z,13.37
2019-04-05T08:36:00.959Z,13.17
2019-04-05T08:38:30.630Z,12.80
2019-04-05T08:41:01.378Z,13.50
2019-04-05T08:43:31.192Z,13.53
2019-04-05T08:46:00.892Z,13.23
2019-04-05T08:48:31.147Z,12.60
2019-04-05T08:51:00.948Z,12.40
2019-04-05T08:53:30.656Z,13.20
2019-04-05T08:56:00.442Z,13.20
2019-04-05T08:58:33.670Z,12.80
2019-04-05T09:01:02.420Z,13.72
2019-04-05T09:03:32.205Z,15.10
2019-04-05T09:06:02.069Z,14.47
2019-04-05T09:08:33.043Z,14.40
2019-04-05T09:11:03.174Z,14.37
2019-04-05T09:13:33.057Z,13.40
2019-04-05T09:16:03.009Z,12.83
2019-04-05T09:18:32.748Z,14.28
2019-04-05T09:21:02.570Z,13.97
2019-04-05T09:23:32.383Z,13.70
2019-04-05T09:26:02.187Z,13.50
2019-04-05T09:28:32.071Z,12.90
2019-04-05T09:31:02.027Z,13.72
2019-04-05T09:33:31.841Z,12.50
2019-04-05T09:36:02.289Z,13.17
2019-04-05T09:38:32.158Z,12.80
2019-04-05T09:41:04.911Z,12.70
2019-04-05T09:43:37.766Z,14.50
2019-04-05T09:46:08.591Z,14.10
2019-04-05T09:48:39.315Z,13.08
2019-04-05T09:51:09.106Z,14.00
2019-04-05T09:53:39.504Z,13.87
2019-04-05T09:56:09.207Z,13.27
2019-04-05T09:58:39.399Z,13.93
2019-04-05T10:01:09.202Z,13.58
2019-04-05T10:03:39.109Z,13.53
2019-04-05T10:06:08.990Z,13.10
2019-04-05T10:08:39.697Z,13.50
2019-04-05T10:11:14.211Z,13.07
2019-04-05T10:13:44.075Z,14.37
2019-04-05T10:16:13.945Z,13.93
2019-04-05T10:18:45.707Z,13.50
2019-04-05T10:21:15.476Z,14.00
2019-04-05T10:23:45.222Z,14.00
2019-04-05T10:26:15.050Z,12.70
2019-04-05T10:28:46.390Z,13.90
2019-04-05T10:31:16.312Z,14.70
2019-04-05T10:33:46.044Z,14.20
2019-04-05T10:36:16.019Z,13.53
2019-04-05T10:38:46.829Z,13.80
2019-04-05T10:41:16.586Z,14.25
2019-04-05T10:43:46.366Z,14.10
2019-04-05T10:46:16.950Z,14.50
2019-04-05T10:48:46.757Z,15.67
2019-04-05T10:51:16.457Z,14.90
2019-04-05T10:53:48.225Z,15.07
2019-04-05T10:56:18.222Z,13.70
2019-04-05T10:58:48.079Z,15.93
2019-04-05T11:01:17.811Z,15.30
2019-04-05T11:03:47.640Z,15.93
2019-04-05T11:06:17.537Z,16.32
2019-04-05T11:08:48.378Z,16.17
2019-04-05T11:11:18.168Z,17.37
2019-04-05T11:13:48.325Z,15.93
2019-04-05T11:16:18.412Z,17.20
2019-04-05T11:18:48.273Z,16.97
2019-04-05T11:21:19.039Z,16.73
2019-04-05T11:23:48.851Z,16.27
2019-04-05T11:26:18.749Z,16.83
2019-04-05T11:28:49.414Z,16.87
2019-04-05T11:31:20.317Z,15.10
2019-04-05T11:33:51.179Z,14.47
2019-04-05T11:36:21.183Z,14.73
2019-04-05T11:38:51.131Z,12.97
2019-04-05T11:41:21.012Z,12.67
2019-04-05T11:43:52.078Z,13.30
2019-04-05T11:46:22.053Z,12.78
2019-04-05T11:48:54.343Z,14.37
2019-04-05T11:51:25.394Z,12.33
2019-04-05T11:53:56.149Z,13.77
2019-04-05T11:56:26.464Z,14.17
2019-04-05T11:58:57.100Z,13.22
2019-04-05T12:01:35.276Z,12.73
2019-04-05T12:04:05.042Z,11.30
2019-04-05T12:06:35.267Z,11.53
2019-04-05T12:09:07.697Z,10.97
2019-04-05T12:11:37.609Z,11.83
2019-04-05T12:14:07.349Z,11.60
2019-04-05T12:16:37.033Z,11.17
2019-04-05T12:19:06.934Z,11.57
2019-04-05T12:21:36.606Z,11.10
2019-04-05T12:24:06.410Z,11.50
2019-04-05T12:26:36.554Z,11.00
2019-04-05T12:29:07.495Z,11.70
2019-04-05T12:31:37.297Z,11.27
2019-04-05T12:34:07.089Z,11.80
2019-04-05T12:36:36.932Z,11.47
2019-04-05T12:39:08.489Z,11.33
2019-04-05T12:41:40.962Z,10.70
2019-04-05T12:44:14.153Z,10.87
2019-04-05T12:46:43.448Z,10.80
2019-04-05T12:49:15.324Z,10.80
2019-04-05T12:51:46.197Z,10.63
2019-04-05T12:54:16.121Z,11.00
2019-04-05T12:56:45.926Z,10.50
2019-04-05T12:59:15.619Z,12.00
2019-04-05T13:01:46.471Z,11.36
2019-04-05T13:04:16.550Z,10.60
2019-04-05T13:06:46.363Z,10.77
2019-04-05T13:09:16.249Z,11.17
2019-04-05T13:11:46.159Z,11.73
2019-04-05T13:14:16.086Z,12.67
2019-04-05T13:16:49.195Z,11.67
2019-04-05T13:19:17.823Z,11.77
2019-04-05T13:21:47.621Z,11.10
2019-04-05T13:24:17.370Z,11.80
2019-04-05T13:26:47.160Z,11.65
2019-04-05T13:29:17.586Z,10.80
2019-04-05T13:31:49.272Z,11.18
2019-04-05T13:34:19.385Z,11.07
2019-04-05T13:36:49.088Z,12.50
2019-04-05T13:39:18.807Z,11.50
2019-04-05T13:41:48.634Z,12.67
2019-04-05T13:44:18.359Z,12.18
2019-04-05T13:46:48.097Z,12.47
2019-04-05T13:49:17.718Z,14.60
2019-04-05T13:51:47.402Z,12.93
2019-04-05T13:54:17.154Z,13.50
2019-04-05T13:56:46.903Z,14.47
2019-04-05T13:59:16.707Z,13.17
2019-04-05T14:01:50.767Z,13.38
2019-04-05T14:04:20.681Z,13.97
2019-04-05T14:06:53.274Z,14.67
2019-04-05T14:09:21.301Z,14.20
2019-04-05T14:11:51.086Z,13.93
2019-04-05T14:14:21.071Z,13.98
2019-04-05T14:16:50.718Z,13.80
2019-04-05T14:19:20.441Z,14.73
2019-04-05T14:21:52.726Z,14.17
2019-04-05T14:24:23.415Z,15.35
2019-04-05T14:26:53.039Z,16.30
2019-04-05T14:29:22.716Z,15.78
2019-04-05T14:31:52.474Z,14.83
2019-04-05T14:34:23.686Z,14.93
2019-04-05T14:36:54.329Z,15.23
2019-04-05T14:39:24.093Z,16.47
2019-04-05T14:41:53.755Z,15.10
2019-04-05T14:44:23.576Z,15.13
2019-04-05T14:46:53.447Z,15.00
2019-04-05T14:49:23.139Z,14.23
2019-04-05T14:51:56.439Z,14.33
2019-04-05T14:54:25.216Z,14.43
2019-04-05T14:56:57.301Z,14.47
2019-04-05T14:59:26.325Z,14.07
2019-04-05T15:01:55.995Z,15.07
2019-04-05T15:04:25.708Z,14.80
2019-04-05T15:06:55.465Z,15.85
2019-04-05T15:09:25.651Z,16.00
2019-04-05T15:11:56.444Z,15.53
2019-04-05T15:14:26.894Z,15.30
2019-04-05T15:16:56.659Z,15.37
2019-04-05T15:19:26.453Z,14.77
2019-04-05T15:22:05.562Z,15.57
2019-04-05T15:24:27.728Z,15.27
2019-04-05T15:26:57.385Z,16.87
2019-04-05T15:29:27.745Z,15.40
2019-04-05T15:31:57.608Z,15.07
2019-04-05T15:34:29.040Z,15.83
2019-04-05T15:37:01.551Z,16.03
2019-04-05T15:39:32.357Z,15.72
2019-04-05T15:42:02.244Z,13.53
2019-04-05T15:44:32.893Z,14.93
2019-04-05T15:47:02.790Z,14.87
2019-04-05T15:49:35.897Z,16.00
2019-04-05T15:52:17.797Z,14.90
2019-04-05T15:54:37.154Z,15.30
2019-04-05T15:57:06.902Z,15.13
2019-04-05T15:59:36.587Z,16.73
2019-04-05T16:02:06.447Z,15.93
2019-04-05T16:04:36.343Z,16.17
2019-04-05T16:07:06.249Z,16.60
2019-04-05T16:09:36.988Z,16.75
2019-04-05T16:12:07.028Z,18.53
2019-04-05T16:14:36.912Z,18.23
2019-04-05T16:17:07.629Z,17.30
2019-04-05T16:19:37.390Z,16.57
2019-04-05T16:22:07.238Z,16.87
2019-04-05T16:24:37.010Z,17.33
2019-04-05T16:27:07.051Z,16.45
2019-04-05T16:29:36.794Z,16.03
2019-04-05T16:32:06.634Z,19.00
2019-04-05T16:34:36.360Z,18.12
2019-04-05T16:37:06.188Z,17.90
2019-04-05T16:39:35.954Z,18.30
2019-04-05T16:42:05.904Z,18.80
2019-04-05T16:44:36.230Z,19.05
2019-04-05T16:47:06.043Z,16.33
2019-04-05T16:49:35.870Z,19.40
2019-04-05T16:52:05.672Z,19.07
2019-04-05T16:54:35.322Z,19.30
2019-04-05T16:57:06.047Z,18.93
2019-04-05T16:59:37.938Z,18.67
2019-04-05T17:02:08.286Z,19.73
2019-04-05T17:04:40.297Z,18.60
2019-04-05T17:07:11.118Z,19.47
2019-04-05T17:09:41.034Z,20.33
2019-04-05T17:12:10.719Z,20.33
2019-04-05T17:14:40.496Z,18.17
2019-04-05T17:17:10.600Z,19.27
2019-04-05T17:19:42.945Z,19.90
2019-04-05T17:22:13.020Z,19.53
2019-04-05T17:24:42.874Z,19.83
2019-04-05T17:27:12.677Z,20.03
2019-04-05T17:29:42.539Z,19.83
2019-04-05T17:32:12.545Z,19.32
2019-04-05T17:34:42.348Z,19.97
2019-04-05T17:37:12.144Z,19.70
2019-04-05T17:39:43.155Z,19.37
2019-04-05T17:42:13.011Z,18.87
2019-04-05T17:44:42.867Z,19.27
2019-04-05T17:47:12.764Z,19.13
2019-04-05T17:49:42.500Z,18.60
2019-04-05T17:52:12.273Z,18.83
2019-04-05T17:54:42.088Z,19.70
2019-04-05T17:57:11.898Z,22.48
2019-04-05T17:59:41.651Z,20.27
2019-04-05T18:02:11.464Z,21.33
2019-04-05T18:04:41.112Z,20.20
2019-04-05T18:07:11.931Z,20.92
2019-04-05T18:09:41.631Z,20.70
2019-04-05T18:12:11.468Z,21.45
2019-04-05T18:14:41.126Z,21.67
2019-04-05T18:17:15.123Z,22.10
2019-04-05T18:19:45.255Z,21.60
2019-04-05T18:22:15.188Z,22.20
2019-04-05T18:24:44.898Z,20.87
2019-04-05T18:27:14.599Z,23.00
2019-04-05T18:29:44.281Z,21.50
2019-04-05T18:32:14.091Z,22.65
2019-04-05T18:34:43.808Z,21.57
2019-04-05T18:37:14.888Z,20.72
2019-04-05T18:39:44.690Z,21.50
2019-04-05T18:42:14.477Z,21.30
2019-04-05T18:44:45.286Z,20.50
2019-04-05T18:47:18.686Z,22.53
2019-04-05T18:49:48.506Z,22.67
2019-04-05T18:52:18.334Z,20.50
2019-04-05T18:54:48.362Z,21.60
2019-04-05T18:57:18.203Z,21.67
2019-04-05T18:59:48.189Z,22.47
2019-04-05T19:02:17.988Z,21.37
2019-04-05T19:04:49.696Z,21.67
2019-04-05T19:07:22.188Z,22.45
2019-04-05T19:09:51.498Z,21.13
2019-04-05T19:12:21.416Z,21.90
2019-04-05T19:14:51.044Z,22.43
2019-04-05T19:17:24.096Z,22.47
2019-04-05T19:19:52.367Z,21.95
2019-04-05T19:22:22.189Z,23.60
2019-04-05T19:24:52.035Z,23.32
2019-04-05T19:27:21.755Z,24.07
2019-04-05T19:29:52.570Z,24.33
2019-04-05T19:50:02.763Z,25.03
2019-04-05T19:52:32.543Z,25.07
2019-04-05T19:55:02.247Z,23.73
2019-04-05T19:57:32.016Z,26.87
2019-04-05T20:00:01.894Z,25.37
2019-04-05T20:02:31.661Z,24.97
2019-04-05T20:05:01.459Z,26.37
2019-04-05T20:07:31.460Z,27.07
2019-04-05T20:10:01.345Z,25.80
2019-04-05T20:12:31.247Z,27.43
2019-04-05T20:15:01.028Z,26.73
2019-04-05T20:17:31.853Z,26.55
2019-04-05T20:20:01.519Z,28.17
2019-04-05T20:22:31.259Z,25.30
2019-04-05T20:25:00.984Z,25.63
2019-04-05T20:27:30.693Z,25.30
2019-04-05T20:30:00.557Z,26.05
2019-04-05T20:32:30.383Z,28.13
2019-04-05T20:35:01.225Z,26.65
2019-04-05T20:37:31.008Z,26.50
2019-04-05T20:40:00.882Z,26.90
2019-04-05T20:42:31.065Z,28.15
2019-04-05T20:45:00.932Z,26.40
2019-04-05T20:47:30.857Z,28.27
2019-04-05T20:50:00.520Z,27.13
2019-04-05T20:52:30.290Z,26.70
2019-04-05T20:55:00.105Z,29.47
2019-04-05T20:57:29.864Z,30.97
2019-04-05T20:59:59.674Z,29.67
2019-04-05T21:02:29.722Z,30.67
2019-04-05T21:04:59.685Z,31.10
2019-04-05T21:07:29.536Z,32.03
2019-04-05T21:09:59.404Z,30.68
2019-04-05T21:12:29.182Z,31.63
2019-04-05T21:14:58.888Z,31.77
2019-04-05T21:17:28.703Z,28.90
2019-04-05T21:19:58.413Z,31.07
2019-04-05T21:22:28.126Z,30.27
2019-04-05T21:24:57.947Z,29.90
2019-04-05T21:27:27.654Z,30.10
2019-04-05T21:29:57.438Z,29.07
2019-04-05T21:32:27.400Z,29.07
2019-04-05T21:34:57.504Z,29.80
2019-04-05T21:37:27.346Z,29.87
2019-04-05T21:39:58.290Z,30.07
2019-04-05T21:42:27.971Z,29.10
2019-04-05T21:44:57.768Z,29.70
2019-04-05T21:47:27.585Z,30.52
2019-04-05T21:49:57.323Z,31.10
2019-04-05T21:52:27.134Z,30.53
2019-04-05T21:54:57.206Z,32.03
2019-04-05T21:57:27.074Z,31.40
2019-04-05T21:59:56.719Z,31.60
2019-04-05T22:02:26.583Z,30.23
2019-04-05T22:04:57.254Z,30.77
2019-04-05T22:07:27.116Z,31.53
2019-04-05T22:09:56.920Z,31.80
2019-04-05T22:12:27.470Z,33.63
2019-04-05T22:14:57.215Z,32.23
2019-04-05T22:17:26.934Z,32.85
2019-04-05T22:19:57.193Z,32.23
2019-04-05T22:22:28.446Z,33.20
2019-04-05T22:24:59.595Z,30.50
2019-04-05T22:27:29.596Z,32.03
2019-04-05T22:30:00.038Z,32.80
2019-04-05T22:32:31.081Z,33.27
2019-04-05T22:35:00.912Z,32.28
2019-04-05T22:37:31.451Z,33.40
2019-04-05T22:40:01.522Z,34.00
2019-04-05T22:42:34.638Z,32.87
2019-04-05T22:45:05.099Z,32.97
2019-04-05T22:47:35.422Z,32.93
2019-04-05T22:50:05.500Z,32.73
2019-04-05T22:52:35.279Z,33.23
2019-04-05T22:55:11.015Z,32.43
2019-04-05T22:57:37.082Z,31.95
2019-04-05T23:00:07.158Z,33.50
2019-04-05T23:02:38.545Z,31.47
2019-04-05T23:05:08.449Z,33.50
2019-04-05T23:07:38.436Z,31.33
2019-04-05T23:10:08.420Z,34.63
2019-04-05T23:12:38.270Z,33.67
2019-04-05T23:15:08.264Z,31.83
2019-04-05T23:17:39.332Z,32.93
2019-04-05T23:20:09.512Z,33.25
2019-04-05T23:22:39.202Z,30.53
2019-04-05T23:25:09.234Z,32.03
2019-04-05T23:27:40.071Z,32.10
2019-04-05T23:30:09.980Z,33.03
2019-04-05T23:32:39.678Z,32.13
2019-04-05T23:35:09.836Z,33.25
2019-04-05T23:37:39.552Z,33.67
2019-04-05T23:40:09.342Z,32.57
2019-04-05T23:42:39.056Z,34.30
2019-04-05T23:45:08.966Z,34.60
2019-04-05T23:47:39.045Z,32.80
2019-04-05T23:50:08.789Z,33.83
2019-04-05T23:52:38.840Z,34.53
2019-04-05T23:55:09.140Z,34.93
2019-04-05T23:57:38.853Z,33.35
